Carlisle, Indiana
Current Conditions -  °F | °C
As of 4:35 AM on Monday 24 Nov 2014 (Local Time) from KRSV Reporting Station
Overcast Overcast  
Wind Chill: 57°   Ceiling: 2000
Heat Index: 57°   Visibility: 10mi
Dew Point: 55°   Wind: 16mph
Humidity: 93%   Direction: 200°SSW
Pressure: 29.19"   Gusts: 24mph
Location:  38.97°N, 87.41°W
Report Text: KRSV 240935Z AUTO 20014G21KT 10SM SCT014 BKN020 OVC035 14/13 A2919 RMK AO2 LTG DSNT NE T01400129
Loading
Personal Weather Stations






























Interactive Weather Map New forecast layout! Learn more

10-Day Weather Forecast

Advertisements
Track Severe Weather on mobile